Decoded Metar for KIMT (IRON MOUNTAIN in MI, USA) (IATA:IMT) | Meteo·Mobile Aviation Weather
aviador You're here:

KIMT Decoded Metar

IRON MOUNTAIN in MI, USA
Report Time2019-04-20 09:54:00
UTC Time2019-04-20 10:21:13
Flight Rules vfr VFR
Wind320° at 03 kt
W.Decomp.*RWY 31: 2.9 kt HW 0.6 kt RCW
RWY 01: 2.0 kt HW 2.2 kt LCW
Visibility9999 m
Phenomena:N/A
Clouds:N/A
Expected CloudBase > 800 ft AGL from Temp-Dew spread
CeilingNone
Temp-5°C (ISA -18)
Dew Point-7°C (86% RH)
AAT-8.9°C
QNH1013 hPa
Density Alt-984 ft
Elevation1,145 ft
Report Wrong Elevation
Raw Report
KIMT 200954Z AUTO 32003KT 10SM CLR M05/M07 A2991 RMK AO2 SLP140
T10501072=

Extra information for KIMT:More info

Metar Taf Metar & Taf Last 4 Metars F.Rules Stats Wind Profile Meteogram Temp Stats Airport Information Weather charts Add Link Nearby VenuesMetar ALERT Operation Metar Decoded Social comments

AIRNAV info for KIMT